sensor_id;sensor_type;location;lat;lon;timestamp;pressure;altitude;pressure_sealevel;temperature;humidity
62712;BME280;48772;55.586;37.730;2023-07-13T00:00:36;98388.22;;;13.27;100.00
62712;BME280;48772;55.586;37.730;2023-07-13T00:03:03;98386.03;;;13.22;100.00
62712;BME280;48772;55.586;37.730;2023-07-13T00:05:30;98367.47;;;13.21;100.00
62712;BME280;48772;55.586;37.730;2023-07-13T00:07:56;98386.56;;;13.26;100.00
62712;BME280;48772;55.586;37.730;2023-07-13T00:10:22;98376.19;;;13.23;100.00
62712;BME280;48772;55.586;37.730;2023-07-13T00:12:49;98355.13;;;13.04;100.00
62712;BME280;48772;55.586;37.730;2023-07-13T00:15:25;98371.63;;;13.23;100.00
62712;BME280;48772;55.586;37.730;2023-07-13T00:17:53;98367.81;;;13.18;100.00
62712;BME280;48772;55.586;37.730;2023-07-13T00:20:21;98374.66;;;13.28;100.00
62712;BME280;48772;55.586;37.730;2023-07-13T00:22:49;98366.44;;;13.22;100.00
62712;BME280;48772;55.586;37.730;2023-07-13T00:25:15;98372.47;;;13.24;100.00
62712;BME280;48772;55.586;37.730;2023-07-13T00:27:43;98364.75;;;13.29;100.00
62712;BME280;48772;55.586;37.730;2023-07-13T00:30:10;98372.28;;;13.33;100.00
62712;BME280;48772;55.586;37.730;2023-07-13T00:32:37;98344.88;;;13.23;100.00
62712;BME280;48772;55.586;37.730;2023-07-13T00:35:03;98349.25;;;13.24;100.00
62712;BME280;48772;55.586;37.730;2023-07-13T00:37:31;98370.94;;;13.38;100.00
62712;BME280;48772;55.586;37.730;2023-07-13T00:39:57;98349.88;;;13.26;100.00
62712;BME280;48772;55.586;37.730;2023-07-13T00:42:23;98335.34;;;13.21;100.00
62712;BME280;48772;55.586;37.730;2023-07-13T00:47:41;98383.66;;;13.44;100.00
62712;BME280;48772;55.586;37.730;2023-07-13T00:50:15;98358.44;;;13.30;100.00
62712;BME280;48772;55.586;37.730;2023-07-13T00:52:45;98379.13;;;13.36;100.00
62712;BME280;48772;55.586;37.730;2023-07-13T00:55:13;98331.06;;;13.04;100.00
62712;BME280;48772;55.586;37.730;2023-07-13T00:57:40;98326.19;;;13.07;100.00
62712;BME280;48772;55.586;37.730;2023-07-13T01:00:08;98379.69;;;13.32;100.00
62712;BME280;48772;55.586;37.730;2023-07-13T01:02:40;98389.34;;;13.41;100.00
62712;BME280;48772;55.586;37.730;2023-07-13T01:05:18;98372.78;;;13.37;100.00
62712;BME280;48772;55.586;37.730;2023-07-13T01:07:45;98368.44;;;13.36;100.00
62712;BME280;48772;55.586;37.730;2023-07-13T01:10:27;98364.44;;;13.32;100.00
62712;BME280;48772;55.586;37.730;2023-07-13T01:12:53;98371.63;;;13.40;100.00
62712;BME280;48772;55.586;37.730;2023-07-13T01:15:44;98382.81;;;13.43;100.00
62712;BME280;48772;55.586;37.730;2023-07-13T01:18:20;98387.34;;;13.43;100.00
62712;BME280;48772;55.586;37.730;2023-07-13T01:21:05;98364.75;;;13.29;100.00
62712;BME280;48772;55.586;37.730;2023-07-13T01:23:31;98384.19;;;13.31;100.00
62712;BME280;48772;55.586;37.730;2023-07-13T01:25:58;98383.66;;;13.27;100.00
62712;BME280;48772;55.586;37.730;2023-07-13T01:28:25;98380.19;;;13.27;100.00
62712;BME280;48772;55.586;37.730;2023-07-13T01:30:57;98352.09;;;13.15;100.00
62712;BME280;48772;55.586;37.730;2023-07-13T01:33:24;98373.81;;;13.28;100.00
62712;BME280;48772;55.586;37.730;2023-07-13T01:35:50;98350.91;;;13.17;100.00
62712;BME280;48772;55.586;37.730;2023-07-13T01:38:18;98338.03;;;13.13;100.00
62712;BME280;48772;55.586;37.730;2023-07-13T01:40:44;98348.72;;;13.21;100.00
62712;BME280;48772;55.586;37.730;2023-07-13T01:43:10;98355.41;;;13.25;100.00
62712;BME280;48772;55.586;37.730;2023-07-13T01:45:37;98361.78;;;13.24;100.00
62712;BME280;48772;55.586;37.730;2023-07-13T01:48:03;98326.19;;;13.07;100.00
62712;BME280;48772;55.586;37.730;2023-07-13T01:50:33;98363.44;;;13.25;100.00
62712;BME280;48772;55.586;37.730;2023-07-13T01:52:59;98361.78;;;13.24;100.00
62712;BME280;48772;55.586;37.730;2023-07-13T01:55:26;98352.41;;;13.20;100.00
62712;BME280;48772;55.586;37.730;2023-07-13T01:57:51;98352.59;;;13.18;100.00
62712;BME280;48772;55.586;37.730;2023-07-13T02:00:17;98352.38;;;13.28;100.00
62712;BME280;48772;55.586;37.730;2023-07-13T02:02:47;98354.75;;;13.23;100.00
62712;BME280;48772;55.586;37.730;2023-07-13T02:05:14;98340.06;;;13.19;100.00
62712;BME280;48772;55.586;37.730;2023-07-13T02:07:42;98349.06;;;13.26;100.00
62712;BME280;48772;55.586;37.730;2023-07-13T02:10:09;98348.88;;;13.27;100.00
62712;BME280;48772;55.586;37.730;2023-07-13T02:12:36;98355.75;;;13.30;100.00
62712;BME280;48772;55.586;37.730;2023-07-13T02:15:04;98357.75;;;13.28;100.00
62712;BME280;48772;55.586;37.730;2023-07-13T02:17:35;98356.09;;;13.27;100.00
62712;BME280;48772;55.586;37.730;2023-07-13T02:20:03;98362.44;;;13.34;100.00
62712;BME280;48772;55.586;37.730;2023-07-13T02:22:32;98348.38;;;13.32;100.00
62712;BME280;48772;55.586;37.730;2023-07-13T02:24:58;98348.38;;;13.32;100.00
62712;BME280;48772;55.586;37.730;2023-07-13T02:27:25;98338.03;;;13.21;100.00
62712;BME280;48772;55.586;37.730;2023-07-13T02:29:52;98353.88;;;13.30;100.00
62712;BME280;48772;55.586;37.730;2023-07-13T02:32:20;98340.34;;;13.24;100.00
62712;BME280;48772;55.586;37.730;2023-07-13T02:34:46;98350.22;;;13.32;100.00
62712;BME280;48772;55.586;37.730;2023-07-13T02:37:15;98353.72;;;13.32;100.00
62712;BME280;48772;55.586;37.730;2023-07-13T02:39:41;98347.38;;;13.25;100.00
62712;BME280;48772;55.586;37.730;2023-07-13T02:42:07;98337.72;;;13.16;100.00
62712;BME280;48772;55.586;37.730;2023-07-13T02:44:32;98352.69;;;13.33;100.00
62712;BME280;48772;55.586;37.730;2023-07-13T02:46:58;98357.06;;;13.34;100.00
62712;BME280;48772;55.586;37.730;2023-07-13T02:49:24;98348.88;;;13.36;100.00
62712;BME280;48772;55.586;37.730;2023-07-13T02:51:51;98348.69;;;13.37;100.00
62712;BME280;48772;55.586;37.730;2023-07-13T02:54:17;98343.66;;;13.42;100.00
62712;BME280;48772;55.586;37.730;2023-07-13T02:56:43;98335.97;;;13.39;100.00
62712;BME280;48772;55.586;37.730;2023-07-13T02:59:09;98344.66;;;13.41;100.00
62712;BME280;48772;55.586;37.730;2023-07-13T03:01:35;98325.75;;;13.34;100.00
62712;BME280;48772;55.586;37.730;2023-07-13T03:04:03;98346.81;;;13.46;100.00
62712;BME280;48772;55.586;37.730;2023-07-13T03:06:33;98295.34;;;13.19;100.00
62712;BME280;48772;55.586;37.730;2023-07-13T03:08:59;98332.44;;;13.38;100.00
62712;BME280;48772;55.586;37.730;2023-07-13T03:11:26;98330.09;;;13.44;100.00
62712;BME280;48772;55.586;37.730;2023-07-13T03:14:04;98318.22;;;13.38;100.00
62712;BME280;48772;55.586;37.730;2023-07-13T03:16:34;98344.31;;;13.44;100.00
62712;BME280;48772;55.586;37.730;2023-07-13T03:19:00;98330.75;;;13.46;100.00
62712;BME280;48772;55.586;37.730;2023-07-13T03:21:26;98324.59;;;13.37;100.00
62712;BME280;48772;55.586;37.730;2023-07-13T03:23:53;98347.31;;;13.49;100.00
62712;BME280;48772;55.586;37.730;2023-07-13T03:26:20;98339.97;;;13.43;100.00
62712;BME280;48772;55.586;37.730;2023-07-13T03:28:46;98299.88;;;13.27;100.00
62712;BME280;48772;55.586;37.730;2023-07-13T03:31:19;98352.00;;;13.47;100.00
62712;BME280;48772;55.586;37.730;2023-07-13T03:33:46;98326.25;;;13.38;100.00
62712;BME280;48772;55.586;37.730;2023-07-13T03:36:16;98349.97;;;13.57;100.00
62712;BME280;48772;55.586;37.730;2023-07-13T03:38:51;98324.41;;;13.47;100.00
62712;BME280;48772;55.586;37.730;2023-07-13T03:41:22;98358.13;;;13.64;100.00
62712;BME280;48772;55.586;37.730;2023-07-13T03:43:51;98312.72;;;13.40;100.00
62712;BME280;48772;55.586;37.730;2023-07-13T03:46:22;98342.25;;;13.54;100.00
62712;BME280;48772;55.586;37.730;2023-07-13T03:48:50;98339.94;;;13.51;100.00
62712;BME280;48772;55.586;37.730;2023-07-13T03:51:17;98329.75;;;13.47;100.00
62712;BME280;48772;55.586;37.730;2023-07-13T03:53:45;98349.22;;;13.71;100.00
62712;BME280;48772;55.586;37.730;2023-07-13T03:56:14;98350.25;;;13.70;100.00
62712;BME280;48772;55.586;37.730;2023-07-13T03:58:43;98317.50;;;13.52;100.00
62712;BME280;48772;55.586;37.730;2023-07-13T04:01:21;98317.66;;;13.59;100.00
62712;BME280;48772;55.586;37.730;2023-07-13T04:03:47;98349.38;;;13.78;100.00
62712;BME280;48772;55.586;37.730;2023-07-13T04:06:19;98327.47;;;13.74;100.00
62712;BME280;48772;55.586;37.730;2023-07-13T04:08:52;98327.75;;;13.79;100.00
62712;BME280;48772;55.586;37.730;2023-07-13T04:11:19;98351.25;;;14.00;100.00
62712;BME280;48772;55.586;37.730;2023-07-13T04:13:46;98342.34;;;14.07;100.00
62712;BME280;48772;55.586;37.730;2023-07-13T04:16:13;98345.03;;;14.07;100.00
62712;BME280;48772;55.586;37.730;2023-07-13T04:18:39;98345.38;;;14.04;100.00
62712;BME280;48772;55.586;37.730;2023-07-13T04:21:07;98357.41;;;14.08;100.00
62712;BME280;48772;55.586;37.730;2023-07-13T04:23:35;98342.25;;;13.93;100.00
62712;BME280;48772;55.586;37.730;2023-07-13T04:26:01;98334.66;;;14.04;100.00
62712;BME280;48772;55.586;37.730;2023-07-13T04:28:27;98355.88;;;14.14;100.00
62712;BME280;48772;55.586;37.730;2023-07-13T04:30:54;98348.00;;;14.12;100.00
62712;BME280;48772;55.586;37.730;2023-07-13T04:33:20;98343.66;;;14.11;100.00
62712;BME280;48772;55.586;37.730;2023-07-13T04:35:54;98348.50;;;14.16;100.00
62712;BME280;48772;55.586;37.730;2023-07-13T04:38:30;98344.59;;;14.26;100.00
62712;BME280;48772;55.586;37.730;2023-07-13T04:40:58;98340.84;;;14.35;100.00
62712;BME280;48772;55.586;37.730;2023-07-13T04:43:25;98324.81;;;14.27;100.00
62712;BME280;48772;55.586;37.730;2023-07-13T04:45:52;98321.09;;;14.28;100.00
62712;BME280;48772;55.586;37.730;2023-07-13T04:48:18;98334.34;;;14.30;100.00
62712;BME280;48772;55.586;37.730;2023-07-13T04:50:45;98334.94;;;14.40;100.00
62712;BME280;48772;55.586;37.730;2023-07-13T04:53:12;98320.56;;;14.33;100.00
62712;BME280;48772;55.586;37.730;2023-07-13T04:55:38;98322.44;;;14.32;100.00
62712;BME280;48772;55.586;37.730;2023-07-13T04:58:04;98338.66;;;14.39;100.00
62712;BME280;48772;55.586;37.730;2023-07-13T05:00:31;98318.44;;;14.28;100.00
62712;BME280;48772;55.586;37.730;2023-07-13T05:02:58;98333.81;;;14.34;100.00
62712;BME280;48772;55.586;37.730;2023-07-13T05:05:26;98348.44;;;14.54;100.00
62712;BME280;48772;55.586;37.730;2023-07-13T05:07:53;98324.31;;;14.46;100.00
62712;BME280;48772;55.586;37.730;2023-07-13T05:10:19;98327.31;;;14.51;100.00
62712;BME280;48772;55.586;37.730;2023-07-13T05:12:46;98316.09;;;14.48;100.00
62712;BME280;48772;55.586;37.730;2023-07-13T05:15:13;98352.09;;;14.76;100.00
62712;BME280;48772;55.586;37.730;2023-07-13T05:17:39;98349.16;;;14.85;100.00
62712;BME280;48772;55.586;37.730;2023-07-13T05:20:08;98326.72;;;14.64;100.00
62712;BME280;48772;55.586;37.730;2023-07-13T05:22:34;98289.53;;;14.38;100.00
62712;BME280;48772;55.586;37.730;2023-07-13T05:25:05;98320.50;;;14.63;100.00
62712;BME280;48772;55.586;37.730;2023-07-13T05:27:31;98333.91;;;14.86;100.00
62712;BME280;48772;55.586;37.730;2023-07-13T05:29:58;98335.66;;;14.93;100.00
62712;BME280;48772;55.586;37.730;2023-07-13T05:32:24;98319.78;;;15.06;100.00
62712;BME280;48772;55.586;37.730;2023-07-13T05:34:50;98342.97;;;15.36;100.00
62712;BME280;48772;55.586;37.730;2023-07-13T05:37:15;98293.47;;;15.31;100.00
62712;BME280;48772;55.586;37.730;2023-07-13T05:39:41;98332.97;;;15.74;100.00
62712;BME280;48772;55.586;37.730;2023-07-13T05:42:07;98334.16;;;15.71;100.00
62712;BME280;48772;55.586;37.730;2023-07-13T05:44:37;98274.78;;;15.37;100.00
62712;BME280;48772;55.586;37.730;2023-07-13T05:47:05;98253.00;;;15.47;100.00
62712;BME280;48772;55.586;37.730;2023-07-13T05:49:31;98270.53;;;15.57;100.00
62712;BME280;48772;55.586;37.730;2023-07-13T05:51:58;98328.72;;;16.00;100.00
62712;BME280;48772;55.586;37.730;2023-07-13T05:54:26;98336.81;;;16.21;100.00
62712;BME280;48772;55.586;37.730;2023-07-13T05:56:52;98317.06;;;16.29;100.00
62712;BME280;48772;55.586;37.730;2023-07-13T05:59:19;98307.53;;;16.48;100.00
62712;BME280;48772;55.586;37.730;2023-07-13T06:01:45;98299.06;;;16.51;100.00
62712;BME280;48772;55.586;37.730;2023-07-13T06:04:11;98293.34;;;16.60;100.00
62712;BME280;48772;55.586;37.730;2023-07-13T06:06:39;98302.00;;;16.56;100.00
62712;BME280;48772;55.586;37.730;2023-07-13T06:09:05;98319.56;;;16.73;100.00
62712;BME280;48772;55.586;37.730;2023-07-13T06:11:31;98320.28;;;16.60;100.00
62712;BME280;48772;55.586;37.730;2023-07-13T06:13:57;98318.56;;;16.53;100.00
62712;BME280;48772;55.586;37.730;2023-07-13T06:16:24;98312.66;;;16.64;100.00
62712;BME280;48772;55.586;37.730;2023-07-13T06:18:52;98305.06;;;16.74;100.00
62712;BME280;48772;55.586;37.730;2023-07-13T06:21:22;98283.94;;;16.71;100.00
62712;BME280;48772;55.586;37.730;2023-07-13T06:23:50;98305.53;;;17.05;100.00
62712;BME280;48772;55.586;37.730;2023-07-13T06:26:18;98253.50;;;17.04;100.00
62712;BME280;48772;55.586;37.730;2023-07-13T06:28:45;98286.44;;;17.34;100.00
62712;BME280;48772;55.586;37.730;2023-07-13T06:31:13;98282.66;;;17.22;100.00
62712;BME280;48772;55.586;37.730;2023-07-13T06:33:39;98285.59;;;17.27;100.00
62712;BME280;48772;55.586;37.730;2023-07-13T06:36:06;98285.72;;;17.46;100.00
62712;BME280;48772;55.586;37.730;2023-07-13T06:38:33;98282.59;;;17.43;100.00
62712;BME280;48772;55.586;37.730;2023-07-13T06:40:59;98276.22;;;17.57;100.00
62712;BME280;48772;55.586;37.730;2023-07-13T06:43:25;98278.31;;;17.55;100.00
62712;BME280;48772;55.586;37.730;2023-07-13T06:45:53;98261.66;;;17.45;100.00
62712;BME280;48772;55.586;37.730;2023-07-13T06:48:19;98275.38;;;17.56;100.00
62712;BME280;48772;55.586;37.730;2023-07-13T06:50:49;98267.47;;;17.48;100.00
62712;BME280;48772;55.586;37.730;2023-07-13T06:53:15;98261.56;;;17.66;100.00
62712;BME280;48772;55.586;37.730;2023-07-13T06:55:43;98263.44;;;17.72;100.00
62712;BME280;48772;55.586;37.730;2023-07-13T06:58:10;98264.94;;;17.81;100.00
62712;BME280;48772;55.586;37.730;2023-07-13T07:00:36;98290.00;;;17.75;100.00
62712;BME280;48772;55.586;37.730;2023-07-13T07:03:02;98274.22;;;17.78;100.00
62712;BME280;48772;55.586;37.730;2023-07-13T07:05:28;98295.81;;;17.78;100.00
62712;BME280;48772;55.586;37.730;2023-07-13T07:07:55;98280.91;;;17.82;100.00
62712;BME280;48772;55.586;37.730;2023-07-13T07:10:21;98278.81;;;17.71;100.00
62712;BME280;48772;55.586;37.730;2023-07-13T07:12:47;98283.56;;;17.76;100.00
62712;BME280;48772;55.586;37.730;2023-07-13T07:15:13;98301.63;;;17.75;100.00
62712;BME280;48772;55.586;37.730;2023-07-13T07:17:39;98289.00;;;17.82;100.00
62712;BME280;48772;55.586;37.730;2023-07-13T07:20:06;98272.97;;;17.74;100.00
62712;BME280;48772;55.586;37.730;2023-07-13T07:22:32;98282.56;;;17.77;100.00
62712;BME280;48772;55.586;37.730;2023-07-13T07:24:58;98293.34;;;17.77;100.00
62712;BME280;48772;55.586;37.730;2023-07-13T07:27:24;98266.66;;;17.48;100.00
62712;BME280;48772;55.586;37.730;2023-07-13T07:29:50;98274.44;;;17.36;100.00
62712;BME280;48772;55.586;37.730;2023-07-13T07:32:16;98279.81;;;17.30;100.00
62712;BME280;48772;55.586;37.730;2023-07-13T07:34:42;98274.28;;;17.10;100.00
62712;BME280;48772;55.586;37.730;2023-07-13T07:37:11;98285.59;;;17.33;100.00
62712;BME280;48772;55.586;37.730;2023-07-13T07:39:37;98281.88;;;17.34;100.00
62712;BME280;48772;55.586;37.730;2023-07-13T07:42:04;98294.88;;;17.52;100.00
62712;BME280;48772;55.586;37.730;2023-07-13T07:44:31;98299.91;;;17.61;100.00
62712;BME280;48772;55.586;37.730;2023-07-13T07:46:57;98300.78;;;17.75;100.00
62712;BME280;48772;55.586;37.730;2023-07-13T07:49:23;98310.94;;;17.73;100.00
62712;BME280;48772;55.586;37.730;2023-07-13T07:51:49;98272.91;;;17.55;100.00
62712;BME280;48772;55.586;37.730;2023-07-13T07:54:15;98305.53;;;17.73;100.00
62712;BME280;48772;55.586;37.730;2023-07-13T07:56:41;98314.34;;;17.88;100.00
62712;BME280;48772;55.586;37.730;2023-07-13T07:59:07;98312.84;;;17.85;100.00
62712;BME280;48772;55.586;37.730;2023-07-13T08:01:33;98312.84;;;17.79;100.00
62712;BME280;48772;55.586;37.730;2023-07-13T08:03:59;98310.31;;;17.71;100.00
62712;BME280;48772;55.586;37.730;2023-07-13T08:06:25;98295.28;;;17.49;100.00
62712;BME280;48772;55.586;37.730;2023-07-13T08:08:50;98278.88;;;17.44;100.00
62712;BME280;48772;55.586;37.730;2023-07-13T08:11:17;98307.31;;;17.53;100.00
62712;BME280;48772;55.586;37.730;2023-07-13T08:13:43;98313.06;;;17.43;100.00
62712;BME280;48772;55.586;37.730;2023-07-13T08:16:09;98293.88;;;17.32;100.00
62712;BME280;48772;55.586;37.730;2023-07-13T08:18:35;98330.44;;;17.41;100.00
62712;BME280;48772;55.586;37.730;2023-07-13T08:21:07;98309.84;;;17.27;100.00
62712;BME280;48772;55.586;37.730;2023-07-13T08:23:34;98315.59;;;17.24;100.00
62712;BME280;48772;55.586;37.730;2023-07-13T08:26:01;98318.50;;;17.22;100.00
62712;BME280;48772;55.586;37.730;2023-07-13T08:28:28;98323.31;;;17.27;100.00
62712;BME280;48772;55.586;37.730;2023-07-13T08:30:54;98297.53;;;17.18;100.00
62712;BME280;48772;55.586;37.730;2023-07-13T08:33:21;98295.09;;;17.23;100.00
62712;BME280;48772;55.586;37.730;2023-07-13T08:35:50;98307.34;;;17.25;100.00
62712;BME280;48772;55.586;37.730;2023-07-13T08:38:17;98312.69;;;17.19;100.00
62712;BME280;48772;55.586;37.730;2023-07-13T08:40:44;98322.81;;;17.17;100.00
62712;BME280;48772;55.586;37.730;2023-07-13T08:43:16;98314.50;;;17.12;100.00
62712;BME280;48772;55.586;37.730;2023-07-13T08:45:48;98311.16;;;17.10;100.00
62712;BME280;48772;55.586;37.730;2023-07-13T08:48:29;98317.78;;;17.07;100.00
62712;BME280;48772;55.586;37.730;2023-07-13T08:51:24;98327.16;;;17.18;100.00
62712;BME280;48772;55.586;37.730;2023-07-13T08:54:07;98316.50;;;17.03;100.00
62712;BME280;48772;55.586;37.730;2023-07-13T08:56:36;98318.63;;;17.08;100.00
62712;BME280;48772;55.586;37.730;2023-07-13T08:59:13;98306.97;;;17.01;100.00
62712;BME280;48772;55.586;37.730;2023-07-13T09:01:55;98309.06;;;17.05;100.00
62712;BME280;48772;55.586;37.730;2023-07-13T09:04:31;98293.66;;;16.93;100.00
62712;BME280;48772;55.586;37.730;2023-07-13T09:09:50;98329.78;;;17.05;100.00
62712;BME280;48772;55.586;37.730;2023-07-13T09:17:51;98329.91;;;16.97;100.00
62712;BME280;48772;55.586;37.730;2023-07-13T09:29:06;98356.47;;;17.27;100.00
62712;BME280;48772;55.586;37.730;2023-07-13T09:31:52;98334.03;;;17.20;100.00
62712;BME280;48772;55.586;37.730;2023-07-13T09:34:20;98345.25;;;17.24;100.00
62712;BME280;48772;55.586;37.730;2023-07-13T09:36:52;98346.66;;;17.20;100.00
62712;BME280;48772;55.586;37.730;2023-07-13T09:39:28;98350.44;;;17.25;100.00
62712;BME280;48772;55.586;37.730;2023-07-13T09:42:18;98348.97;;;17.23;100.00
62712;BME280;48772;55.586;37.730;2023-07-13T09:47:20;98354.94;;;17.18;100.00
62712;BME280;48772;55.586;37.730;2023-07-13T09:49:54;98355.44;;;17.01;100.00
62712;BME280;48772;55.586;37.730;2023-07-13T09:52:21;98341.97;;;17.01;100.00
62712;BME280;48772;55.586;37.730;2023-07-13T09:54:50;98339.16;;;16.88;100.00
62712;BME280;48772;55.586;37.730;2023-07-13T09:57:23;98360.78;;;16.94;100.00
62712;BME280;48772;55.586;37.730;2023-07-13T09:59:52;98347.38;;;16.80;100.00
62712;BME280;48772;55.586;37.730;2023-07-13T10:02:35;98346.63;;;16.65;100.00
62712;BME280;48772;55.586;37.730;2023-07-13T10:05:11;98338.41;;;16.52;100.00
62712;BME280;48772;55.586;37.730;2023-07-13T10:07:43;98353.28;;;16.48;100.00
62712;BME280;48772;55.586;37.730;2023-07-13T10:10:21;98349.97;;;16.46;100.00
62712;BME280;48772;55.586;37.730;2023-07-13T10:12:49;98347.94;;;16.33;100.00
62712;BME280;48772;55.586;37.730;2023-07-13T10:15:20;98341.63;;;16.26;100.00
62712;BME280;48772;55.586;37.730;2023-07-13T10:17:48;98347.00;;;16.26;100.00
62712;BME280;48772;55.586;37.730;2023-07-13T10:20:15;98366.69;;;16.26;100.00
62712;BME280;48772;55.586;37.730;2023-07-13T10:22:53;98371.22;;;16.26;100.00
62712;BME280;48772;55.586;37.730;2023-07-13T10:25:24;98367.31;;;16.28;100.00
62712;BME280;48772;55.586;37.730;2023-07-13T10:27:53;98353.75;;;16.15;100.00
62712;BME280;48772;55.586;37.730;2023-07-13T10:30:35;98382.53;;;16.21;100.00
62712;BME280;48772;55.586;37.730;2023-07-13T10:33:10;98368.13;;;16.08;100.00
62712;BME280;48772;55.586;37.730;2023-07-13T10:35:40;98385.41;;;16.20;100.00
62712;BME280;48772;55.586;37.730;2023-07-13T10:38:13;98333.78;;;15.74;100.00
62712;BME280;48772;55.586;37.730;2023-07-13T10:40:42;98388.41;;;16.10;100.00
62712;BME280;48772;55.586;37.730;2023-07-13T10:43:18;98356.75;;;15.91;100.00
62712;BME280;48772;55.586;37.730;2023-07-13T10:45:46;98344.69;;;15.87;100.00
62712;BME280;48772;55.586;37.730;2023-07-13T10:48:17;98345.44;;;15.81;100.00
62712;BME280;48772;55.586;37.730;2023-07-13T10:50:46;98347.38;;;15.73;100.00
62712;BME280;48772;55.586;37.730;2023-07-13T10:53:31;98387.06;;;16.00;100.00
62712;BME280;48772;55.586;37.730;2023-07-13T10:58:37;98395.44;;;16.11;100.00
62712;BME280;48772;55.586;37.730;2023-07-13T11:01:16;98372.22;;;16.04;100.00
62712;BME280;48772;55.586;37.730;2023-07-13T11:08:52;98386.97;;;15.93;100.00
62712;BME280;48772;55.586;37.730;2023-07-13T11:18:54;98378.63;;;15.88;100.00
62712;BME280;48772;55.586;37.730;2023-07-13T11:21:34;98406.69;;;16.00;100.00
62712;BME280;48772;55.586;37.730;2023-07-13T11:26:43;98364.19;;;15.75;100.00
62712;BME280;48772;55.586;37.730;2023-07-13T11:32:01;98377.31;;;15.84;100.00
62712;BME280;48772;55.586;37.730;2023-07-13T11:34:34;98389.09;;;15.83;100.00
62712;BME280;48772;55.586;37.730;2023-07-13T11:37:02;98355.75;;;15.63;100.00
62712;BME280;48772;55.586;37.730;2023-07-13T11:39:41;98358.81;;;15.60;100.00
62712;BME280;48772;55.586;37.730;2023-07-13T11:42:12;98352.53;;;15.53;100.00
62712;BME280;48772;55.586;37.730;2023-07-13T11:44:46;98376.97;;;15.73;100.00
62712;BME280;48772;55.586;37.730;2023-07-13T11:47:21;98374.56;;;15.63;100.00
62712;BME280;48772;55.586;37.730;2023-07-13T11:49:55;98319.06;;;15.41;100.00
62712;BME280;48772;55.586;37.730;2023-07-13T11:52:34;98361.78;;;15.65;100.00
62712;BME280;48772;55.586;37.730;2023-07-13T11:55:13;98341.22;;;15.43;100.00
62712;BME280;48772;55.586;37.730;2023-07-13T11:57:50;98380.22;;;15.68;100.00
62712;BME280;48772;55.586;37.730;2023-07-13T12:00:20;98375.97;;;15.74;100.00
62712;BME280;48772;55.586;37.730;2023-07-13T12:02:52;98382.53;;;15.71;100.00
62712;BME280;48772;55.586;37.730;2023-07-13T12:05:19;98371.16;;;15.55;100.00
62712;BME280;48772;55.586;37.730;2023-07-13T12:07:50;98382.06;;;15.68;100.00
62712;BME280;48772;55.586;37.730;2023-07-13T12:10:26;98383.72;;;15.69;100.00
62712;BME280;48772;55.586;37.730;2023-07-13T12:12:59;98382.91;;;15.54;100.00
62712;BME280;48772;55.586;37.730;2023-07-13T12:15:40;98357.94;;;15.31;100.00
62712;BME280;48772;55.586;37.730;2023-07-13T12:18:15;98391.13;;;15.52;100.00
62712;BME280;48772;55.586;37.730;2023-07-13T12:20:41;98403.19;;;15.56;100.00
62712;BME280;48772;55.586;37.730;2023-07-13T12:25:46;98371.41;;;15.45;100.00
62712;BME280;48772;55.586;37.730;2023-07-13T12:28:33;98387.53;;;15.60;100.00
62712;BME280;48772;55.586;37.730;2023-07-13T12:31:02;98389.75;;;15.56;100.00
62712;BME280;48772;55.586;37.730;2023-07-13T12:33:29;98395.31;;;15.69;100.00
62712;BME280;48772;55.586;37.730;2023-07-13T12:35:57;98361.69;;;15.59;100.00
62712;BME280;48772;55.586;37.730;2023-07-13T12:38:25;98370.47;;;15.67;100.00
62712;BME280;48772;55.586;37.730;2023-07-13T12:40:52;98308.75;;;15.30;100.00
62712;BME280;48772;55.586;37.730;2023-07-13T12:43:20;98314.09;;;15.38;100.00
62712;BME280;48772;55.586;37.730;2023-07-13T12:46:00;98384.66;;;15.76;100.00
62712;BME280;48772;55.586;37.730;2023-07-13T12:48:27;98349.38;;;15.64;100.00
62712;BME280;48772;55.586;37.730;2023-07-13T12:50:55;98344.38;;;15.61;100.00
62712;BME280;48772;55.586;37.730;2023-07-13T12:53:24;98356.66;;;15.70;100.00
62712;BME280;48772;55.586;37.730;2023-07-13T12:55:56;98371.50;;;15.66;100.00
62712;BME280;48772;55.586;37.730;2023-07-13T12:58:29;98332.78;;;15.46;100.00
62712;BME280;48772;55.586;37.730;2023-07-13T13:00:58;98363.16;;;15.61;100.00
62712;BME280;48772;55.586;37.730;2023-07-13T13:03:47;98376.06;;;15.66;100.00
62712;BME280;48772;55.586;37.730;2023-07-13T13:08:49;98374.09;;;15.60;100.00
62712;BME280;48772;55.586;37.730;2023-07-13T13:11:20;98368.34;;;15.48;100.00
62712;BME280;48772;55.586;37.730;2023-07-13T13:13:46;98394.94;;;15.58;100.00
62712;BME280;48772;55.586;37.730;2023-07-13T13:18:54;98334.78;;;15.30;100.00
62712;BME280;48772;55.586;37.730;2023-07-13T13:21:24;98340.72;;;15.25;100.00
62712;BME280;48772;55.586;37.730;2023-07-13T13:23:50;98377.63;;;15.46;100.00
62712;BME280;48772;55.586;37.730;2023-07-13T13:26:18;98351.53;;;15.32;100.00
62712;BME280;48772;55.586;37.730;2023-07-13T13:28:46;98345.53;;;15.30;100.00
62712;BME280;48772;55.586;37.730;2023-07-13T13:31:13;98319.13;;;15.19;100.00
62712;BME280;48772;55.586;37.730;2023-07-13T13:33:42;98294.94;;;15.04;100.00
62712;BME280;48772;55.586;37.730;2023-07-13T13:36:19;98328.13;;;15.26;100.00
62712;BME280;48772;55.586;37.730;2023-07-13T13:38:47;98327.72;;;15.29;100.00
62712;BME280;48772;55.586;37.730;2023-07-13T13:41:13;98342.47;;;15.33;100.00